sensor_id;sensor_type;location;lat;lon;timestamp;P1;durP1;ratioP1;P2;durP2;ratioP2
46643;SDS011;32371;51.032;5.816;2022-12-29T00:01:50;0.98;;;0.20;;
46643;SDS011;32371;51.032;5.816;2022-12-29T00:04:16;1.63;;;0.35;;
46643;SDS011;32371;51.032;5.816;2022-12-29T00:06:42;0.20;;;0.20;;
46643;SDS011;32371;51.032;5.816;2022-12-29T00:09:08;2.78;;;0.30;;
46643;SDS011;32371;51.032;5.816;2022-12-29T00:11:36;0.30;;;0.30;;
46643;SDS011;32371;51.032;5.816;2022-12-29T00:14:01;0.30;;;0.20;;
46643;SDS011;32371;51.032;5.816;2022-12-29T00:16:45;0.20;;;0.20;;
46643;SDS011;32371;51.032;5.816;2022-12-29T00:19:11;0.60;;;0.60;;
46643;SDS011;32371;51.032;5.816;2022-12-29T00:21:55;0.40;;;0.28;;
46643;SDS011;32371;51.032;5.816;2022-12-29T00:24:39;0.60;;;0.20;;
46643;SDS011;32371;51.032;5.816;2022-12-29T00:27:23;1.00;;;0.40;;
46643;SDS011;32371;51.032;5.816;2022-12-29T00:30:17;1.63;;;0.70;;
46643;SDS011;32371;51.032;5.816;2022-12-29T00:38:37;0.57;;;0.30;;
46643;SDS011;32371;51.032;5.816;2022-12-29T00:41:24;0.20;;;0.20;;
46643;SDS011;32371;51.032;5.816;2022-12-29T00:44:08;0.63;;;0.30;;
46643;SDS011;32371;51.032;5.816;2022-12-29T00:46:38;0.17;;;0.13;;
46643;SDS011;32371;51.032;5.816;2022-12-29T00:49:06;1.05;;;0.20;;
46643;SDS011;32371;51.032;5.816;2022-12-29T00:51:51;1.08;;;0.28;;
46643;SDS011;32371;51.032;5.816;2022-12-29T00:54:17;0.57;;;0.20;;
46643;SDS011;32371;51.032;5.816;2022-12-29T00:56:43;0.20;;;0.20;;
46643;SDS011;32371;51.032;5.816;2022-12-29T00:59:11;0.20;;;0.20;;
46643;SDS011;32371;51.032;5.816;2022-12-29T01:01:37;0.20;;;0.17;;
46643;SDS011;32371;51.032;5.816;2022-12-29T01:04:03;0.65;;;0.30;;
46643;SDS011;32371;51.032;5.816;2022-12-29T01:06:29;0.68;;;0.20;;
46643;SDS011;32371;51.032;5.816;2022-12-29T01:08:55;1.27;;;0.20;;
46643;SDS011;32371;51.032;5.816;2022-12-29T01:11:38;0.10;;;0.10;;
46643;SDS011;32371;51.032;5.816;2022-12-29T01:14:04;0.32;;;0.32;;
46643;SDS011;32371;51.032;5.816;2022-12-29T01:16:30;1.67;;;0.20;;
46643;SDS011;32371;51.032;5.816;2022-12-29T01:18:55;0.15;;;0.10;;
46643;SDS011;32371;51.032;5.816;2022-12-29T01:21:21;1.35;;;0.20;;
46643;SDS011;32371;51.032;5.816;2022-12-29T01:23:46;1.13;;;0.20;;
46643;SDS011;32371;51.032;5.816;2022-12-29T01:26:12;0.52;;;0.28;;
46643;SDS011;32371;51.032;5.816;2022-12-29T01:28:39;0.60;;;0.20;;
46643;SDS011;32371;51.032;5.816;2022-12-29T01:31:08;0.70;;;0.20;;
46643;SDS011;32371;51.032;5.816;2022-12-29T01:33:34;0.30;;;0.30;;
46643;SDS011;32371;51.032;5.816;2022-12-29T01:36:00;0.40;;;0.15;;
46643;SDS011;32371;51.032;5.816;2022-12-29T01:38:26;0.75;;;0.40;;
46643;SDS011;32371;51.032;5.816;2022-12-29T01:40:52;0.35;;;0.35;;
46643;SDS011;32371;51.032;5.816;2022-12-29T01:43:17;0.63;;;0.20;;
46643;SDS011;32371;51.032;5.816;2022-12-29T01:45:44;2.85;;;0.30;;
46643;SDS011;32371;51.032;5.816;2022-12-29T01:48:13;0.93;;;0.15;;
46643;SDS011;32371;51.032;5.816;2022-12-29T01:50:41;1.80;;;0.30;;
46643;SDS011;32371;51.032;5.816;2022-12-29T01:53:15;0.57;;;0.30;;
46643;SDS011;32371;51.032;5.816;2022-12-29T01:55:51;1.10;;;0.30;;
46643;SDS011;32371;51.032;5.816;2022-12-29T01:58:19;0.30;;;0.30;;
46643;SDS011;32371;51.032;5.816;2022-12-29T02:00:45;0.43;;;0.30;;
46643;SDS011;32371;51.032;5.816;2022-12-29T02:03:11;0.70;;;0.30;;
46643;SDS011;32371;51.032;5.816;2022-12-29T02:08:07;1.73;;;0.35;;
46643;SDS011;32371;51.032;5.816;2022-12-29T02:10:34;3.83;;;0.63;;
46643;SDS011;32371;51.032;5.816;2022-12-29T02:13:00;1.75;;;0.65;;
46643;SDS011;32371;51.032;5.816;2022-12-29T02:15:38;0.50;;;0.40;;
46643;SDS011;32371;51.032;5.816;2022-12-29T02:18:20;0.63;;;0.40;;
46643;SDS011;32371;51.032;5.816;2022-12-29T02:30:08;0.13;;;0.13;;
46643;SDS011;32371;51.032;5.816;2022-12-29T02:35:30;2.75;;;0.60;;
46643;SDS011;32371;51.032;5.816;2022-12-29T02:43:26;0.40;;;0.30;;
46643;SDS011;32371;51.032;5.816;2022-12-29T02:45:57;0.50;;;0.20;;
46643;SDS011;32371;51.032;5.816;2022-12-29T02:48:25;1.77;;;0.40;;
46643;SDS011;32371;51.032;5.816;2022-12-29T02:51:04;1.02;;;0.25;;
46643;SDS011;32371;51.032;5.816;2022-12-29T02:53:34;0.30;;;0.30;;
46643;SDS011;32371;51.032;5.816;2022-12-29T02:56:19;2.50;;;1.45;;
46643;SDS011;32371;51.032;5.816;2022-12-29T02:58:44;1.13;;;0.40;;
46643;SDS011;32371;51.032;5.816;2022-12-29T03:07:14;1.27;;;1.17;;
46643;SDS011;32371;51.032;5.816;2022-12-29T03:09:52;0.98;;;0.30;;
46643;SDS011;32371;51.032;5.816;2022-12-29T03:15:18;0.10;;;0.10;;
46643;SDS011;32371;51.032;5.816;2022-12-29T03:18:10;0.20;;;0.10;;
46643;SDS011;32371;51.032;5.816;2022-12-29T03:20:50;2.28;;;0.10;;
46643;SDS011;32371;51.032;5.816;2022-12-29T03:23:25;0.75;;;0.30;;
46643;SDS011;32371;51.032;5.816;2022-12-29T03:25:53;1.17;;;0.30;;
46643;SDS011;32371;51.032;5.816;2022-12-29T03:28:22;1.75;;;0.47;;
46643;SDS011;32371;51.032;5.816;2022-12-29T03:30:49;0.10;;;0.10;;
46643;SDS011;32371;51.032;5.816;2022-12-29T03:33:16;1.38;;;0.20;;
46643;SDS011;32371;51.032;5.816;2022-12-29T03:35:44;0.20;;;0.08;;
46643;SDS011;32371;51.032;5.816;2022-12-29T03:40:47;2.55;;;0.10;;
46643;SDS011;32371;51.032;5.816;2022-12-29T03:43:14;1.08;;;0.30;;
46643;SDS011;32371;51.032;5.816;2022-12-29T03:45:40;2.88;;;0.20;;
46643;SDS011;32371;51.032;5.816;2022-12-29T03:48:05;0.30;;;0.20;;
46643;SDS011;32371;51.032;5.816;2022-12-29T03:50:31;0.95;;;0.15;;
46643;SDS011;32371;51.032;5.816;2022-12-29T03:52:56;2.15;;;0.30;;
46643;SDS011;32371;51.032;5.816;2022-12-29T03:55:21;0.38;;;0.10;;
46643;SDS011;32371;51.032;5.816;2022-12-29T03:57:47;0.30;;;0.10;;
46643;SDS011;32371;51.032;5.816;2022-12-29T04:00:12;0.25;;;0.10;;
46643;SDS011;32371;51.032;5.816;2022-12-29T04:02:38;0.32;;;0.17;;
46643;SDS011;32371;51.032;5.816;2022-12-29T04:05:04;0.40;;;0.20;;
46643;SDS011;32371;51.032;5.816;2022-12-29T04:07:29;0.95;;;0.20;;
46643;SDS011;32371;51.032;5.816;2022-12-29T04:09:55;0.40;;;0.30;;
46643;SDS011;32371;51.032;5.816;2022-12-29T04:12:20;0.22;;;0.20;;
46643;SDS011;32371;51.032;5.816;2022-12-29T04:14:46;0.95;;;0.20;;
46643;SDS011;32371;51.032;5.816;2022-12-29T04:17:11;2.05;;;0.75;;
46643;SDS011;32371;51.032;5.816;2022-12-29T04:19:36;0.47;;;0.30;;
46643;SDS011;32371;51.032;5.816;2022-12-29T04:22:02;2.25;;;0.25;;
46643;SDS011;32371;51.032;5.816;2022-12-29T04:24:27;0.20;;;0.13;;
46643;SDS011;32371;51.032;5.816;2022-12-29T04:26:53;0.20;;;0.10;;
46643;SDS011;32371;51.032;5.816;2022-12-29T04:29:19;0.80;;;0.22;;
46643;SDS011;32371;51.032;5.816;2022-12-29T04:31:44;0.20;;;0.10;;
46643;SDS011;32371;51.032;5.816;2022-12-29T04:34:10;1.70;;;0.20;;
46643;SDS011;32371;51.032;5.816;2022-12-29T04:36:35;0.50;;;0.25;;
46643;SDS011;32371;51.032;5.816;2022-12-29T04:39:01;0.32;;;0.20;;
46643;SDS011;32371;51.032;5.816;2022-12-29T04:41:26;0.73;;;0.20;;
46643;SDS011;32371;51.032;5.816;2022-12-29T04:43:52;0.20;;;0.15;;
46643;SDS011;32371;51.032;5.816;2022-12-29T04:46:18;1.60;;;0.22;;
46643;SDS011;32371;51.032;5.816;2022-12-29T04:48:43;0.73;;;0.30;;
46643;SDS011;32371;51.032;5.816;2022-12-29T04:51:09;0.35;;;0.30;;
46643;SDS011;32371;51.032;5.816;2022-12-29T04:53:34;0.22;;;0.20;;
46643;SDS011;32371;51.032;5.816;2022-12-29T04:56:00;0.80;;;0.22;;
46643;SDS011;32371;51.032;5.816;2022-12-29T04:58:25;1.90;;;0.40;;
46643;SDS011;32371;51.032;5.816;2022-12-29T05:00:51;0.28;;;0.13;;
46643;SDS011;32371;51.032;5.816;2022-12-29T05:03:17;2.40;;;0.57;;
46643;SDS011;32371;51.032;5.816;2022-12-29T05:05:42;2.92;;;1.50;;
46643;SDS011;32371;51.032;5.816;2022-12-29T05:08:08;1.35;;;0.50;;
46643;SDS011;32371;51.032;5.816;2022-12-29T05:10:33;0.70;;;0.13;;
46643;SDS011;32371;51.032;5.816;2022-12-29T05:12:59;0.98;;;0.30;;
46643;SDS011;32371;51.032;5.816;2022-12-29T05:15:24;0.40;;;0.30;;
46643;SDS011;32371;51.032;5.816;2022-12-29T05:17:50;2.78;;;0.90;;
46643;SDS011;32371;51.032;5.816;2022-12-29T05:20:15;0.20;;;0.20;;
46643;SDS011;32371;51.032;5.816;2022-12-29T05:22:41;1.75;;;0.35;;
46643;SDS011;32371;51.032;5.816;2022-12-29T05:25:06;1.80;;;0.10;;
46643;SDS011;32371;51.032;5.816;2022-12-29T05:27:32;0.30;;;0.20;;
46643;SDS011;32371;51.032;5.816;2022-12-29T05:29:58;4.53;;;0.57;;
46643;SDS011;32371;51.032;5.816;2022-12-29T05:32:23;2.50;;;0.20;;
46643;SDS011;32371;51.032;5.816;2022-12-29T05:34:48;0.55;;;0.15;;
46643;SDS011;32371;51.032;5.816;2022-12-29T05:37:14;4.15;;;0.20;;
46643;SDS011;32371;51.032;5.816;2022-12-29T05:39:40;0.95;;;0.17;;
46643;SDS011;32371;51.032;5.816;2022-12-29T05:42:05;6.13;;;0.50;;
46643;SDS011;32371;51.032;5.816;2022-12-29T05:44:31;2.70;;;0.40;;
46643;SDS011;32371;51.032;5.816;2022-12-29T05:46:56;4.88;;;0.43;;
46643;SDS011;32371;51.032;5.816;2022-12-29T05:49:21;5.35;;;0.47;;
46643;SDS011;32371;51.032;5.816;2022-12-29T05:51:47;0.45;;;0.28;;
46643;SDS011;32371;51.032;5.816;2022-12-29T05:54:12;2.80;;;0.47;;
46643;SDS011;32371;51.032;5.816;2022-12-29T05:56:38;2.55;;;0.50;;
46643;SDS011;32371;51.032;5.816;2022-12-29T05:59:03;0.22;;;0.20;;
46643;SDS011;32371;51.032;5.816;2022-12-29T06:01:29;4.32;;;0.30;;
46643;SDS011;32371;51.032;5.816;2022-12-29T06:03:54;1.50;;;0.40;;
46643;SDS011;32371;51.032;5.816;2022-12-29T06:06:20;1.65;;;0.30;;
46643;SDS011;32371;51.032;5.816;2022-12-29T06:08:45;3.35;;;0.50;;
46643;SDS011;32371;51.032;5.816;2022-12-29T06:11:11;1.75;;;0.32;;
46643;SDS011;32371;51.032;5.816;2022-12-29T06:13:36;0.30;;;0.30;;
46643;SDS011;32371;51.032;5.816;2022-12-29T06:16:02;1.77;;;0.30;;
46643;SDS011;32371;51.032;5.816;2022-12-29T06:18:28;2.70;;;0.82;;
46643;SDS011;32371;51.032;5.816;2022-12-29T06:20:53;1.30;;;0.30;;
46643;SDS011;32371;51.032;5.816;2022-12-29T06:23:19;2.72;;;0.40;;
46643;SDS011;32371;51.032;5.816;2022-12-29T06:25:44;3.95;;;0.77;;
46643;SDS011;32371;51.032;5.816;2022-12-29T06:28:12;0.60;;;0.40;;
46643;SDS011;32371;51.032;5.816;2022-12-29T06:30:37;1.65;;;0.73;;
46643;SDS011;32371;51.032;5.816;2022-12-29T06:33:03;1.67;;;0.32;;
46643;SDS011;32371;51.032;5.816;2022-12-29T06:35:28;2.35;;;0.60;;
46643;SDS011;32371;51.032;5.816;2022-12-29T06:37:53;2.67;;;0.30;;
46643;SDS011;32371;51.032;5.816;2022-12-29T06:40:19;2.72;;;0.73;;
46643;SDS011;32371;51.032;5.816;2022-12-29T06:42:44;1.20;;;0.30;;
46643;SDS011;32371;51.032;5.816;2022-12-29T06:45:10;2.67;;;0.30;;
46643;SDS011;32371;51.032;5.816;2022-12-29T06:47:35;1.95;;;0.40;;
46643;SDS011;32371;51.032;5.816;2022-12-29T06:50:01;0.43;;;0.40;;
46643;SDS011;32371;51.032;5.816;2022-12-29T06:52:27;1.75;;;0.45;;
46643;SDS011;32371;51.032;5.816;2022-12-29T06:54:53;3.67;;;0.40;;
46643;SDS011;32371;51.032;5.816;2022-12-29T06:57:19;1.77;;;0.25;;
46643;SDS011;32371;51.032;5.816;2022-12-29T06:59:45;1.25;;;0.65;;
46643;SDS011;32371;51.032;5.816;2022-12-29T07:02:11;3.60;;;0.30;;
46643;SDS011;32371;51.032;5.816;2022-12-29T07:04:36;1.85;;;0.50;;
46643;SDS011;32371;51.032;5.816;2022-12-29T07:07:02;1.38;;;0.40;;
46643;SDS011;32371;51.032;5.816;2022-12-29T07:09:27;3.17;;;0.68;;
46643;SDS011;32371;51.032;5.816;2022-12-29T07:11:53;0.57;;;0.47;;
46643;SDS011;32371;51.032;5.816;2022-12-29T07:14:18;4.75;;;0.80;;
46643;SDS011;32371;51.032;5.816;2022-12-29T07:16:44;1.40;;;0.43;;
46643;SDS011;32371;51.032;5.816;2022-12-29T07:19:09;0.73;;;0.30;;
46643;SDS011;32371;51.032;5.816;2022-12-29T07:21:34;1.55;;;0.55;;
46643;SDS011;32371;51.032;5.816;2022-12-29T07:24:00;4.38;;;0.68;;
46643;SDS011;32371;51.032;5.816;2022-12-29T07:26:25;2.17;;;0.57;;
46643;SDS011;32371;51.032;5.816;2022-12-29T07:28:50;3.45;;;0.60;;
46643;SDS011;32371;51.032;5.816;2022-12-29T07:31:17;8.95;;;0.75;;
46643;SDS011;32371;51.032;5.816;2022-12-29T07:33:44;1.10;;;0.47;;
46643;SDS011;32371;51.032;5.816;2022-12-29T07:36:10;1.98;;;0.57;;
46643;SDS011;32371;51.032;5.816;2022-12-29T07:38:36;2.30;;;0.30;;
46643;SDS011;32371;51.032;5.816;2022-12-29T07:41:01;5.50;;;0.30;;
46643;SDS011;32371;51.032;5.816;2022-12-29T07:43:27;3.22;;;0.50;;
46643;SDS011;32371;51.032;5.816;2022-12-29T07:45:52;2.58;;;0.43;;
46643;SDS011;32371;51.032;5.816;2022-12-29T07:48:18;1.45;;;0.45;;
46643;SDS011;32371;51.032;5.816;2022-12-29T07:50:43;2.80;;;0.80;;
46643;SDS011;32371;51.032;5.816;2022-12-29T07:53:09;3.35;;;0.95;;
46643;SDS011;32371;51.032;5.816;2022-12-29T07:55:34;5.95;;;0.90;;
46643;SDS011;32371;51.032;5.816;2022-12-29T07:57:59;3.00;;;0.47;;
46643;SDS011;32371;51.032;5.816;2022-12-29T08:00:25;5.05;;;0.63;;
46643;SDS011;32371;51.032;5.816;2022-12-29T08:02:50;2.35;;;0.35;;
46643;SDS011;32371;51.032;5.816;2022-12-29T08:05:16;5.10;;;0.50;;
46643;SDS011;32371;51.032;5.816;2022-12-29T08:07:45;4.85;;;0.73;;
46643;SDS011;32371;51.032;5.816;2022-12-29T08:10:10;5.78;;;0.52;;
46643;SDS011;32371;51.032;5.816;2022-12-29T08:12:39;6.88;;;0.47;;
46643;SDS011;32371;51.032;5.816;2022-12-29T08:15:06;3.70;;;0.65;;
46643;SDS011;32371;51.032;5.816;2022-12-29T08:17:34;5.63;;;0.80;;
46643;SDS011;32371;51.032;5.816;2022-12-29T08:20:00;6.10;;;0.90;;
46643;SDS011;32371;51.032;5.816;2022-12-29T08:22:25;5.00;;;0.50;;
46643;SDS011;32371;51.032;5.816;2022-12-29T08:24:51;8.60;;;0.90;;
46643;SDS011;32371;51.032;5.816;2022-12-29T08:27:16;4.22;;;0.70;;
46643;SDS011;32371;51.032;5.816;2022-12-29T08:29:42;1.33;;;0.38;;
46643;SDS011;32371;51.032;5.816;2022-12-29T08:32:08;1.52;;;0.30;;
46643;SDS011;32371;51.032;5.816;2022-12-29T08:34:33;4.95;;;0.60;;
46643;SDS011;32371;51.032;5.816;2022-12-29T08:36:59;4.03;;;0.77;;
46643;SDS011;32371;51.032;5.816;2022-12-29T08:39:24;1.80;;;0.82;;
46643;SDS011;32371;51.032;5.816;2022-12-29T08:41:49;3.10;;;0.50;;
46643;SDS011;32371;51.032;5.816;2022-12-29T08:44:15;7.10;;;1.30;;
46643;SDS011;32371;51.032;5.816;2022-12-29T08:46:40;2.28;;;0.63;;
46643;SDS011;32371;51.032;5.816;2022-12-29T08:49:05;0.80;;;0.25;;
46643;SDS011;32371;51.032;5.816;2022-12-29T08:51:31;3.13;;;0.50;;
46643;SDS011;32371;51.032;5.816;2022-12-29T08:53:56;2.47;;;0.65;;
46643;SDS011;32371;51.032;5.816;2022-12-29T08:56:22;2.03;;;0.45;;
46643;SDS011;32371;51.032;5.816;2022-12-29T08:58:48;6.00;;;0.45;;
46643;SDS011;32371;51.032;5.816;2022-12-29T09:01:14;8.55;;;1.50;;
46643;SDS011;32371;51.032;5.816;2022-12-29T09:03:40;2.63;;;0.50;;
46643;SDS011;32371;51.032;5.816;2022-12-29T09:06:05;4.25;;;0.38;;
46643;SDS011;32371;51.032;5.816;2022-12-29T09:08:31;6.65;;;0.90;;
46643;SDS011;32371;51.032;5.816;2022-12-29T09:11:04;5.68;;;0.60;;
46643;SDS011;32371;51.032;5.816;2022-12-29T09:13:33;5.68;;;0.90;;
46643;SDS011;32371;51.032;5.816;2022-12-29T09:15:58;6.05;;;1.55;;
46643;SDS011;32371;51.032;5.816;2022-12-29T09:18:24;2.47;;;0.75;;
46643;SDS011;32371;51.032;5.816;2022-12-29T09:20:55;2.78;;;0.60;;
46643;SDS011;32371;51.032;5.816;2022-12-29T09:23:21;2.55;;;0.40;;
46643;SDS011;32371;51.032;5.816;2022-12-29T09:25:47;3.90;;;0.63;;
46643;SDS011;32371;51.032;5.816;2022-12-29T09:28:12;5.28;;;1.02;;
46643;SDS011;32371;51.032;5.816;2022-12-29T09:30:37;6.05;;;0.43;;
46643;SDS011;32371;51.032;5.816;2022-12-29T09:33:03;3.50;;;0.77;;
46643;SDS011;32371;51.032;5.816;2022-12-29T09:35:28;1.70;;;0.52;;
46643;SDS011;32371;51.032;5.816;2022-12-29T09:37:53;3.35;;;0.68;;
46643;SDS011;32371;51.032;5.816;2022-12-29T09:40:26;3.30;;;0.63;;
46643;SDS011;32371;51.032;5.816;2022-12-29T09:45:45;5.35;;;0.55;;
46643;SDS011;32371;51.032;5.816;2022-12-29T09:48:29;1.67;;;0.70;;
46643;SDS011;32371;51.032;5.816;2022-12-29T09:50:58;2.83;;;1.42;;
46643;SDS011;32371;51.032;5.816;2022-12-29T09:53:28;3.03;;;0.70;;
46643;SDS011;32371;51.032;5.816;2022-12-29T09:55:58;3.72;;;0.60;;
46643;SDS011;32371;51.032;5.816;2022-12-29T10:01:14;2.75;;;0.55;;
46643;SDS011;32371;51.032;5.816;2022-12-29T10:08:52;4.95;;;0.50;;
46643;SDS011;32371;51.032;5.816;2022-12-29T10:11:35;3.33;;;0.77;;
46643;SDS011;32371;51.032;5.816;2022-12-29T10:22:52;4.30;;;0.73;;
46643;SDS011;32371;51.032;5.816;2022-12-29T10:25:28;4.65;;;0.73;;
46643;SDS011;32371;51.032;5.816;2022-12-29T10:27:56;3.03;;;0.55;;
46643;SDS011;32371;51.032;5.816;2022-12-29T10:30:23;4.95;;;0.80;;
46643;SDS011;32371;51.032;5.816;2022-12-29T10:32:52;7.20;;;0.95;;
46643;SDS011;32371;51.032;5.816;2022-12-29T10:35:31;2.67;;;0.60;;
46643;SDS011;32371;51.032;5.816;2022-12-29T10:38:03;7.57;;;1.00;;
46643;SDS011;32371;51.032;5.816;2022-12-29T10:43:44;2.47;;;0.50;;
46643;SDS011;32371;51.032;5.816;2022-12-29T10:46:11;3.75;;;0.65;;
46643;SDS011;32371;51.032;5.816;2022-12-29T10:48:38;8.02;;;0.77;;
46643;SDS011;32371;51.032;5.816;2022-12-29T10:51:05;5.10;;;1.02;;
46643;SDS011;32371;51.032;5.816;2022-12-29T10:53:42;8.15;;;0.80;;
46643;SDS011;32371;51.032;5.816;2022-12-29T10:56:33;5.90;;;0.85;;
46643;SDS011;32371;51.032;5.816;2022-12-29T10:58:59;5.78;;;0.93;;
46643;SDS011;32371;51.032;5.816;2022-12-29T11:01:31;4.40;;;0.73;;
46643;SDS011;32371;51.032;5.816;2022-12-29T11:04:03;4.55;;;0.60;;
46643;SDS011;32371;51.032;5.816;2022-12-29T11:06:33;6.95;;;0.65;;
46643;SDS011;32371;51.032;5.816;2022-12-29T11:09:08;5.53;;;0.80;;
46643;SDS011;32371;51.032;5.816;2022-12-29T11:11:37;10.32;;;1.00;;
46643;SDS011;32371;51.032;5.816;2022-12-29T11:14:10;2.85;;;0.35;;
46643;SDS011;32371;51.032;5.816;2022-12-29T11:16:40;4.82;;;0.70;;
46643;SDS011;32371;51.032;5.816;2022-12-29T11:19:19;4.18;;;0.57;;
46643;SDS011;32371;51.032;5.816;2022-12-29T11:21:48;6.85;;;0.95;;
46643;SDS011;32371;51.032;5.816;2022-12-29T11:24:21;4.32;;;0.43;;
46643;SDS011;32371;51.032;5.816;2022-12-29T11:26:52;6.63;;;0.85;;
46643;SDS011;32371;51.032;5.816;2022-12-29T11:29:26;5.18;;;0.60;;
46643;SDS011;32371;51.032;5.816;2022-12-29T11:31:53;3.50;;;0.63;;
46643;SDS011;32371;51.032;5.816;2022-12-29T11:34:31;2.90;;;0.60;;
46643;SDS011;32371;51.032;5.816;2022-12-29T11:37:05;3.42;;;0.45;;
46643;SDS011;32371;51.032;5.816;2022-12-29T11:39:44;7.47;;;0.98;;
46643;SDS011;32371;51.032;5.816;2022-12-29T11:42:18;5.32;;;0.88;;
46643;SDS011;32371;51.032;5.816;2022-12-29T11:44:47;1.35;;;0.35;;
46643;SDS011;32371;51.032;5.816;2022-12-29T11:47:25;1.30;;;0.50;;
46643;SDS011;32371;51.032;5.816;2022-12-29T11:49:53;2.75;;;1.27;;
46643;SDS011;32371;51.032;5.816;2022-12-29T11:52:24;5.82;;;0.45;;
46643;SDS011;32371;51.032;5.816;2022-12-29T11:54:52;4.22;;;1.58;;
46643;SDS011;32371;51.032;5.816;2022-12-29T11:57:18;11.73;;;1.15;;
46643;SDS011;32371;51.032;5.816;2022-12-29T11:59:51;1.98;;;0.57;;
46643;SDS011;32371;51.032;5.816;2022-12-29T12:04:45;2.95;;;0.68;;
46643;SDS011;32371;51.032;5.816;2022-12-29T12:07:13;4.70;;;0.82;;
46643;SDS011;32371;51.032;5.816;2022-12-29T12:09:51;1.67;;;0.57;;
46643;SDS011;32371;51.032;5.816;2022-12-29T12:15:34;11.07;;;1.00;;
46643;SDS011;32371;51.032;5.816;2022-12-29T12:20:41;9.60;;;1.25;;
46643;SDS011;32371;51.032;5.816;2022-12-29T12:23:22;1.55;;;0.55;;
46643;SDS011;32371;51.032;5.816;2022-12-29T12:30:04;8.00;;;1.13;;
46643;SDS011;32371;51.032;5.816;2022-12-29T12:32:20;1.58;;;0.70;;
46643;SDS011;32371;51.032;5.816;2022-12-29T12:34:48;2.45;;;0.70;;
46643;SDS011;32371;51.032;5.816;2022-12-29T12:48:19;5.45;;;1.00;;
46643;SDS011;32371;51.032;5.816;2022-12-29T12:50:54;6.13;;;1.25;;
46643;SDS011;32371;51.032;5.816;2022-12-29T13:17:17;4.70;;;0.88;;
46643;SDS011;32371;51.032;5.816;2022-12-29T13:20:23;5.38;;;1.02;;
46643;SDS011;32371;51.032;5.816;2022-12-29T13:23:05;2.50;;;0.55;;
46643;SDS011;32371;51.032;5.816;2022-12-29T13:28:35;4.75;;;0.60;;
46643;SDS011;32371;51.032;5.816;2022-12-29T13:34:00;6.72;;;0.63;;
46643;SDS011;32371;51.032;5.816;2022-12-29T13:37:00;3.80;;;0.68;;
46643;SDS011;32371;51.032;5.816;2022-12-29T13:39:30;7.53;;;0.65;;
46643;SDS011;32371;51.032;5.816;2022-12-29T13:41:58;3.53;;;0.57;;
46643;SDS011;32371;51.032;5.816;2022-12-29T13:44:27;3.50;;;0.82;;
46643;SDS011;32371;51.032;5.816;2022-12-29T13:47:00;4.22;;;0.52;;
46643;SDS011;32371;51.032;5.816;2022-12-29T13:49:30;3.08;;;0.70;;
46643;SDS011;32371;51.032;5.816;2022-12-29T13:51:56;1.35;;;0.43;;
46643;SDS011;32371;51.032;5.816;2022-12-29T13:54:29;4.50;;;0.98;;
46643;SDS011;32371;51.032;5.816;2022-12-29T13:59:50;5.57;;;0.80;;
46643;SDS011;32371;51.032;5.816;2022-12-29T14:02:26;6.63;;;0.57;;
46643;SDS011;32371;51.032;5.816;2022-12-29T14:07:45;2.72;;;0.63;;
46643;SDS011;32371;51.032;5.816;2022-12-29T14:13:04;4.68;;;1.17;;
46643;SDS011;32371;51.032;5.816;2022-12-29T14:15:42;9.25;;;0.80;;
46643;SDS011;32371;51.032;5.816;2022-12-29T14:23:40;2.38;;;0.70;;
46643;SDS011;32371;51.032;5.816;2022-12-29T14:28:41;4.10;;;0.52;;
46643;SDS011;32371;51.032;5.816;2022-12-29T14:33:39;5.10;;;0.50;;
46643;SDS011;32371;51.032;5.816;2022-12-29T14:36:29;3.25;;;0.68;;
46643;SDS011;32371;51.032;5.816;2022-12-29T14:38:59;9.65;;;0.85;;
46643;SDS011;32371;51.032;5.816;2022-12-29T14:41:26;4.68;;;0.85;;
46643;SDS011;32371;51.032;5.816;2022-12-29T14:43:55;5.65;;;0.93;;
46643;SDS011;32371;51.032;5.816;2022-12-29T14:46:22;3.70;;;1.25;;
46643;SDS011;32371;51.032;5.816;2022-12-29T14:48:52;5.40;;;1.25;;
46643;SDS011;32371;51.032;5.816;2022-12-29T14:51:34;8.65;;;1.33;;
46643;SDS011;32371;51.032;5.816;2022-12-29T14:54:01;9.60;;;0.88;;
46643;SDS011;32371;51.032;5.816;2022-12-29T14:56:59;8.77;;;1.45;;
46643;SDS011;32371;51.032;5.816;2022-12-29T14:59:25;5.63;;;0.95;;
46643;SDS011;32371;51.032;5.816;2022-12-29T15:01:52;5.57;;;0.68;;
46643;SDS011;32371;51.032;5.816;2022-12-29T15:04:19;4.45;;;0.77;;
46643;SDS011;32371;51.032;5.816;2022-12-29T15:06:50;1.90;;;0.95;;
46643;SDS011;32371;51.032;5.816;2022-12-29T15:09:24;10.60;;;1.00;;
46643;SDS011;32371;51.032;5.816;2022-12-29T15:12:01;4.95;;;1.00;;
46643;SDS011;32371;51.032;5.816;2022-12-29T15:14:33;4.82;;;0.80;;
46643;SDS011;32371;51.032;5.816;2022-12-29T15:17:00;7.18;;;1.25;;
46643;SDS011;32371;51.032;5.816;2022-12-29T15:19:27;8.65;;;1.25;;
46643;SDS011;32371;51.032;5.816;2022-12-29T15:21:53;5.22;;;1.00;;
46643;SDS011;32371;51.032;5.816;2022-12-29T15:24:19;15.18;;;1.65;;
46643;SDS011;32371;51.032;5.816;2022-12-29T15:26:45;4.25;;;0.82;;
46643;SDS011;32371;51.032;5.816;2022-12-29T15:29:32;5.72;;;1.13;;
46643;SDS011;32371;51.032;5.816;2022-12-29T15:34:46;6.60;;;1.60;;
46643;SDS011;32371;51.032;5.816;2022-12-29T15:37:23;4.68;;;0.85;;
46643;SDS011;32371;51.032;5.816;2022-12-29T15:39:51;6.50;;;1.33;;
46643;SDS011;32371;51.032;5.816;2022-12-29T15:44:48;6.40;;;1.20;;
46643;SDS011;32371;51.032;5.816;2022-12-29T15:49:41;6.80;;;0.80;;
46643;SDS011;32371;51.032;5.816;2022-12-29T15:52:08;3.47;;;0.90;;
46643;SDS011;32371;51.032;5.816;2022-12-29T15:54:34;7.60;;;1.20;;
46643;SDS011;32371;51.032;5.816;2022-12-29T15:57:00;6.97;;;0.85;;
46643;SDS011;32371;51.032;5.816;2022-12-29T16:01:53;4.00;;;0.80;;
46643;SDS011;32371;51.032;5.816;2022-12-29T16:04:19;5.15;;;1.10;;
46643;SDS011;32371;51.032;5.816;2022-12-29T16:06:54;1.92;;;1.10;;
46643;SDS011;32371;51.032;5.816;2022-12-29T16:09:29;2.45;;;0.40;;
46643;SDS011;32371;51.032;5.816;2022-12-29T16:12:13;4.13;;;1.27;;
46643;SDS011;32371;51.032;5.816;2022-12-29T16:15:00;3.40;;;0.80;;
46643;SDS011;32371;51.032;5.816;2022-12-29T16:17:28;4.63;;;1.33;;
46643;SDS011;32371;51.032;5.816;2022-12-29T16:19:56;4.50;;;0.60;;
46643;SDS011;32371;51.032;5.816;2022-12-29T16:22:28;7.95;;;1.00;;
46643;SDS011;32371;51.032;5.816;2022-12-29T16:25:00;10.70;;;1.77;;
46643;SDS011;32371;51.032;5.816;2022-12-29T16:27:36;7.18;;;1.35;;
46643;SDS011;32371;51.032;5.816;2022-12-29T16:30:07;8.65;;;1.58;;
46643;SDS011;32371;51.032;5.816;2022-12-29T16:32:46;10.00;;;1.38;;
46643;SDS011;32371;51.032;5.816;2022-12-29T16:35:16;14.68;;;1.63;;
46643;SDS011;32371;51.032;5.816;2022-12-29T16:37:48;4.00;;;1.58;;
46643;SDS011;32371;51.032;5.816;2022-12-29T16:50:36;11.07;;;1.30;;
46643;SDS011;32371;51.032;5.816;2022-12-29T16:53:03;8.60;;;1.48;;
46643;SDS011;32371;51.032;5.816;2022-12-29T16:55:29;6.60;;;1.00;;
46643;SDS011;32371;51.032;5.816;2022-12-29T16:57:54;7.55;;;1.25;;
46643;SDS011;32371;51.032;5.816;2022-12-29T17:00:24;13.00;;;1.25;;
46643;SDS011;32371;51.032;5.816;2022-12-29T17:02:52;6.53;;;1.23;;
46643;SDS011;32371;51.032;5.816;2022-12-29T17:05:19;5.63;;;0.95;;
46643;SDS011;32371;51.032;5.816;2022-12-29T17:07:45;9.77;;;1.95;;
46643;SDS011;32371;51.032;5.816;2022-12-29T17:10:11;6.95;;;1.08;;
46643;SDS011;32371;51.032;5.816;2022-12-29T17:12:38;8.13;;;2.10;;
46643;SDS011;32371;51.032;5.816;2022-12-29T17:22:42;6.65;;;1.15;;
46643;SDS011;32371;51.032;5.816;2022-12-29T17:25:10;7.97;;;1.13;;
46643;SDS011;32371;51.032;5.816;2022-12-29T17:27:37;3.80;;;1.08;;
46643;SDS011;32371;51.032;5.816;2022-12-29T17:30:11;4.75;;;1.55;;
46643;SDS011;32371;51.032;5.816;2022-12-29T17:32:39;5.55;;;1.00;;
46643;SDS011;32371;51.032;5.816;2022-12-29T17:35:05;4.03;;;1.13;;
46643;SDS011;32371;51.032;5.816;2022-12-29T17:37:35;9.88;;;1.38;;
46643;SDS011;32371;51.032;5.816;2022-12-29T17:40:02;7.45;;;1.65;;